createdAt,value
2023-05-03T00:01:55.102Z,10.23
2023-05-03T00:08:37.399Z,8.13
2023-05-03T00:15:19.651Z,6.97
2023-05-03T00:22:01.963Z,10.30
2023-05-03T00:28:44.254Z,12.45
2023-05-03T00:35:28.067Z,14.65
2023-05-03T00:42:10.543Z,16.80
2023-05-03T00:48:53.050Z,17.42
2023-05-03T00:55:36.472Z,17.17
2023-05-03T01:02:18.763Z,14.43
2023-05-03T01:09:23.142Z,12.80
2023-05-03T01:16:27.148Z,23.63
2023-05-03T01:23:48.211Z,17.17
2023-05-03T01:30:32.947Z,12.43
2023-05-03T01:37:15.147Z,17.80
2023-05-03T01:43:58.493Z,15.55
2023-05-03T01:50:40.721Z,14.63
2023-05-03T01:57:23.115Z,15.38
2023-05-03T02:04:05.405Z,14.45
2023-05-03T02:10:47.633Z,15.02
2023-05-03T02:17:31.932Z,18.45
2023-05-03T02:24:14.109Z,14.30
2023-05-03T02:30:57.488Z,14.80
2023-05-03T02:37:39.978Z,13.90
2023-05-03T02:44:26.483Z,13.45
2023-05-03T02:51:08.779Z,18.65
2023-05-03T02:57:51.102Z,15.23
2023-05-03T03:04:35.412Z,16.10
2023-05-03T03:11:18.185Z,24.33
2023-05-03T03:18:01.005Z,13.20
2023-05-03T03:24:43.718Z,17.25
2023-05-03T03:31:26.181Z,17.00
2023-05-03T03:38:11.225Z,12.57
2023-05-03T03:45:00.769Z,14.38
2023-05-03T03:51:43.028Z,10.68
2023-05-03T03:58:25.381Z,12.38
2023-05-03T04:05:08.841Z,11.27
2023-05-03T04:11:51.621Z,11.82
2023-05-03T04:18:34.958Z,17.85
2023-05-03T04:25:18.958Z,17.33
2023-05-03T04:32:09.909Z,8.93
2023-05-03T04:38:53.101Z,11.68
2023-05-03T04:45:36.117Z,12.52
2023-05-03T04:52:18.688Z,14.40
2023-05-03T04:59:01.679Z,16.33
2023-05-03T05:05:43.960Z,12.38
2023-05-03T05:12:27.897Z,7.80
2023-05-03T05:19:10.213Z,9.70
2023-05-03T05:25:54.033Z,14.20
2023-05-03T05:32:36.558Z,13.52
2023-05-03T05:39:19.332Z,10.90
2023-05-03T05:46:01.721Z,12.50
2023-05-03T05:52:44.795Z,17.38
2023-05-03T05:59:31.453Z,12.30
2023-05-03T06:06:15.044Z,8.10
2023-05-03T06:12:57.919Z,8.00
2023-05-03T06:19:43.785Z,10.88
2023-05-03T06:26:27.304Z,10.18
2023-05-03T06:33:14.749Z,13.55
2023-05-03T06:39:59.129Z,10.07
2023-05-03T06:46:41.769Z,8.88
2023-05-03T06:53:24.253Z,6.05
2023-05-03T07:00:07.464Z,6.82
2023-05-03T07:13:37.487Z,8.80
2023-05-03T07:20:19.916Z,5.13
2023-05-03T07:27:02.338Z,3.85
2023-05-03T07:33:44.669Z,4.65
2023-05-03T07:40:28.791Z,4.63
2023-05-03T07:47:11.003Z,5.55
2023-05-03T07:53:53.289Z,3.97
2023-05-03T08:00:35.767Z,3.22
2023-05-03T08:07:17.956Z,4.95
2023-05-03T08:14:00.263Z,2.30
2023-05-03T08:20:42.453Z,3.38
2023-05-03T08:27:26.508Z,3.50
2023-05-03T08:34:10.745Z,2.10
2023-05-03T08:40:58.115Z,7.53
2023-05-03T08:47:44.966Z,1.92
2023-05-03T08:54:27.737Z,2.83
2023-05-03T09:01:10.263Z,5.65
2023-05-03T09:08:12.590Z,3.65
2023-05-03T09:14:54.907Z,1.17
2023-05-03T09:21:37.885Z,1.08
2023-05-03T09:28:21.276Z,4.75
2023-05-03T09:35:10.666Z,1.40
2023-05-03T09:41:54.052Z,3.20
2023-05-03T09:48:38.156Z,2.78
2023-05-03T09:55:22.126Z,4.25
2023-05-03T10:02:07.760Z,1.50
2023-05-03T10:09:02.061Z,3.72
2023-05-03T10:15:45.216Z,2.85
2023-05-03T10:22:27.456Z,4.35
2023-05-03T10:29:35.160Z,2.58
2023-05-03T10:36:17.374Z,5.10
2023-05-03T10:43:01.016Z,2.22
2023-05-03T10:49:43.280Z,3.78
2023-05-03T10:56:25.420Z,1.85
2023-05-03T11:03:54.714Z,1.90
2023-05-03T11:10:37.233Z,3.20
2023-05-03T11:17:19.484Z,1.65
2023-05-03T11:24:02.471Z,5.45
2023-05-03T11:38:16.591Z,3.33
2023-05-03T11:45:00.373Z,2.60
2023-05-03T11:51:46.485Z,4.57
2023-05-03T11:58:30.094Z,3.45
2023-05-03T12:05:13.074Z,5.50
2023-05-03T12:11:58.255Z,3.40
2023-05-03T12:18:56.157Z,6.88
2023-05-03T12:25:40.568Z,7.38
2023-05-03T12:32:26.303Z,5.65
2023-05-03T12:39:10.203Z,5.70
2023-05-03T12:46:08.663Z,6.25
2023-05-03T12:52:55.419Z,5.38
2023-05-03T12:59:40.989Z,9.88
2023-05-03T13:06:25.184Z,2.75
2023-05-03T13:13:07.707Z,5.78
2023-05-03T13:19:51.463Z,7.10
2023-05-03T13:26:33.849Z,4.97
2023-05-03T13:33:17.875Z,3.50
2023-05-03T13:40:00.045Z,7.45
2023-05-03T13:46:43.549Z,10.90
2023-05-03T13:53:26.866Z,9.87
2023-05-03T14:00:10.245Z,14.70
2023-05-03T14:06:52.490Z,4.13
2023-05-03T14:13:47.618Z,8.73
2023-05-03T14:20:37.936Z,16.05
2023-05-03T14:27:21.712Z,5.15
2023-05-03T14:40:46.282Z,5.38
2023-05-03T14:47:28.740Z,13.95
2023-05-03T14:54:11.881Z,8.88
2023-05-03T15:00:54.129Z,11.73
2023-05-03T15:07:36.457Z,7.88
2023-05-03T15:14:19.570Z,6.90
2023-05-03T15:21:03.414Z,8.73
2023-05-03T15:27:48.785Z,11.20
2023-05-03T15:34:35.393Z,8.93
2023-05-03T15:41:17.789Z,8.75
2023-05-03T15:48:00.678Z,6.00
2023-05-03T15:54:43.165Z,7.13
2023-05-03T16:01:25.650Z,7.88
2023-05-03T16:08:08.363Z,5.75
2023-05-03T16:14:50.671Z,5.03
2023-05-03T16:21:33.176Z,8.35
2023-05-03T16:28:16.249Z,10.02
2023-05-03T16:34:58.538Z,5.00
2023-05-03T16:41:41.724Z,9.40
2023-05-03T16:48:24.152Z,11.63
2023-05-03T16:55:09.921Z,10.68
2023-05-03T17:01:52.232Z,15.48
2023-05-03T17:08:34.601Z,12.40
2023-05-03T17:15:17.317Z,14.85
2023-05-03T17:21:59.880Z,13.68
2023-05-03T17:28:44.023Z,19.00
2023-05-03T17:35:26.471Z,15.88
2023-05-03T17:42:09.328Z,16.67
2023-05-03T17:48:52.196Z,17.63
2023-05-03T17:55:38.118Z,13.73
2023-05-03T18:02:21.684Z,13.25
2023-05-03T18:09:04.384Z,12.85
2023-05-03T18:15:46.674Z,13.65
2023-05-03T18:22:28.958Z,15.75
2023-05-03T18:29:11.597Z,16.63
2023-05-03T18:35:54.257Z,16.38
2023-05-03T18:42:36.703Z,16.50
2023-05-03T18:49:19.087Z,14.00
2023-05-03T18:56:02.466Z,16.88
2023-05-03T19:02:45.144Z,19.23
2023-05-03T19:09:27.873Z,14.82
2023-05-03T19:16:10.236Z,12.95
2023-05-03T19:22:52.403Z,16.08
2023-05-03T19:29:34.511Z,11.93
2023-05-03T19:36:17.737Z,14.90
2023-05-03T19:42:59.958Z,12.98
2023-05-03T19:49:43.498Z,14.20
2023-05-03T19:56:25.752Z,15.75
2023-05-03T20:03:07.983Z,13.52
2023-05-03T20:09:50.300Z,19.10
2023-05-03T20:16:37.431Z,21.17
2023-05-03T20:23:19.702Z,14.48
2023-05-03T20:30:04.210Z,25.33
2023-05-03T20:36:46.513Z,18.10
2023-05-03T20:43:28.714Z,19.95
2023-05-03T20:50:11.896Z,24.55
2023-05-03T20:56:53.994Z,20.77
2023-05-03T21:03:36.335Z,23.00
2023-05-03T21:10:18.748Z,22.20
2023-05-03T21:17:01.481Z,15.98
2023-05-03T21:23:45.022Z,21.48
2023-05-03T21:30:28.156Z,17.38
2023-05-03T21:37:10.768Z,23.67
2023-05-03T21:43:52.900Z,11.43
2023-05-03T21:50:40.975Z,16.67
2023-05-03T21:57:23.107Z,12.13
2023-05-03T22:04:05.720Z,15.55
2023-05-03T22:10:48.911Z,15.38
2023-05-03T22:17:34.183Z,22.60
2023-05-03T22:24:16.409Z,19.33
2023-05-03T22:30:58.822Z,19.92
2023-05-03T22:37:41.732Z,24.13
2023-05-03T22:44:24.014Z,18.77
2023-05-03T22:51:06.523Z,19.75
2023-05-03T22:57:48.810Z,17.27
2023-05-03T23:04:31.225Z,12.85
2023-05-03T23:11:13.383Z,12.63
2023-05-03T23:17:56.112Z,14.43
2023-05-03T23:24:39.601Z,10.25
2023-05-03T23:31:21.944Z,14.60
2023-05-03T23:38:04.572Z,17.48
2023-05-03T23:44:54.806Z,14.15
2023-05-03T23:51:37.882Z,18.42
2023-05-03T23:58:20.105Z,15.55
